sensor_id;sensor_type;location;lat;lon;timestamp;pressure;altitude;pressure_sealevel;temperature;humidity
11053;BME280;55230;42.602;23.470;2023-04-29T00:00:01;93471.72;;;4.92;80.35
11053;BME280;55230;42.602;23.470;2023-04-29T00:02:28;93492.06;;;5.05;80.32
11053;BME280;55230;42.602;23.470;2023-04-29T00:04:55;93534.94;;;5.37;80.72
11053;BME280;55230;42.602;23.470;2023-04-29T00:07:22;93399.56;;;4.33;80.48
11053;BME280;55230;42.602;23.470;2023-04-29T00:09:48;93403.44;;;4.28;81.10
11053;BME280;55230;42.602;23.470;2023-04-29T00:12:15;93339.41;;;3.86;81.52
11053;BME280;55230;42.602;23.470;2023-04-29T00:14:43;93547.56;;;5.17;81.83
11053;BME280;55230;42.602;23.470;2023-04-29T00:17:10;93464.94;;;4.44;82.62
11053;BME280;55230;42.602;23.470;2023-04-29T00:19:37;93538.84;;;5.13;83.35
11053;BME280;55230;42.602;23.470;2023-04-29T00:22:04;93456.69;;;4.58;84.17
11053;BME280;55230;42.602;23.470;2023-04-29T00:24:30;93537.00;;;5.10;83.80
11053;BME280;55230;42.602;23.470;2023-04-29T00:26:57;93542.41;;;5.07;84.08
11053;BME280;55230;42.602;23.470;2023-04-29T00:29:24;93515.25;;;4.69;84.68
11053;BME280;55230;42.602;23.470;2023-04-29T00:31:53;93479.06;;;4.45;85.16
11053;BME280;55230;42.602;23.470;2023-04-29T00:34:20;93493.59;;;4.40;85.26
11053;BME280;55230;42.602;23.470;2023-04-29T00:36:47;93327.44;;;2.75;84.15
11053;BME280;55230;42.602;23.470;2023-04-29T00:39:13;93580.31;;;4.79;85.08
11053;BME280;55230;42.602;23.470;2023-04-29T00:41:40;93558.94;;;4.79;85.68
11053;BME280;55230;42.602;23.470;2023-04-29T00:44:07;93448.72;;;3.63;85.62
11053;BME280;55230;42.602;23.470;2023-04-29T00:46:34;93553.78;;;4.68;85.96
11053;BME280;55230;42.602;23.470;2023-04-29T00:49:02;93443.38;;;3.89;86.73
11053;BME280;55230;42.602;23.470;2023-04-29T00:51:29;93272.63;;;2.77;86.91
11053;BME280;55230;42.602;23.470;2023-04-29T00:53:57;93541.13;;;4.49;87.43
11053;BME280;55230;42.602;23.470;2023-04-29T00:56:24;93541.13;;;4.49;87.73
11053;BME280;55230;42.602;23.470;2023-04-29T00:58:51;93427.66;;;3.72;88.29
11053;BME280;55230;42.602;23.470;2023-04-29T01:01:19;93390.31;;;3.48;88.75
11053;BME280;55230;42.602;23.470;2023-04-29T01:03:46;93517.13;;;4.26;90.08
11053;BME280;55230;42.602;23.470;2023-04-29T01:06:22;93526.84;;;4.13;91.01
11053;BME280;55230;42.602;23.470;2023-04-29T01:09:05;93533.75;;;4.33;89.93
11053;BME280;55230;42.602;23.470;2023-04-29T01:11:44;93491.09;;;3.84;89.93
11053;BME280;55230;42.602;23.470;2023-04-29T01:14:15;92970.66;;;0.56;89.82
11053;BME280;55230;42.602;23.470;2023-04-29T01:16:43;93458.47;;;3.99;90.26
11053;BME280;55230;42.602;23.470;2023-04-29T01:19:18;93458.41;;;4.03;90.38
11053;BME280;55230;42.602;23.470;2023-04-29T01:21:48;93465.38;;;3.97;90.95
11053;BME280;55230;42.602;23.470;2023-04-29T01:24:16;93451.34;;;3.66;91.76
11053;BME280;55230;42.602;23.470;2023-04-29T01:26:46;93512.13;;;4.28;91.91
11053;BME280;55230;42.602;23.470;2023-04-29T01:29:21;93471.22;;;3.88;91.64
11053;BME280;55230;42.602;23.470;2023-04-29T01:31:57;93515.50;;;4.32;92.00
11053;BME280;55230;42.602;23.470;2023-04-29T01:34:30;93520.88;;;4.28;92.56
11053;BME280;55230;42.602;23.470;2023-04-29T01:37:04;93505.97;;;4.31;92.43
11053;BME280;55230;42.602;23.470;2023-04-29T01:39:39;93319.47;;;3.01;92.33
11053;BME280;55230;42.602;23.470;2023-04-29T01:42:14;93472.09;;;4.05;92.13
11053;BME280;55230;42.602;23.470;2023-04-29T01:44:44;93420.34;;;3.76;90.66
11053;BME280;55230;42.602;23.470;2023-04-29T01:47:13;93396.28;;;3.56;90.82
11053;BME280;55230;42.602;23.470;2023-04-29T01:49:40;93511.09;;;4.45;91.04
11053;BME280;55230;42.602;23.470;2023-04-29T01:52:07;93508.41;;;4.45;91.27
11053;BME280;55230;42.602;23.470;2023-04-29T01:54:35;93499.25;;;4.46;91.35
11053;BME280;55230;42.602;23.470;2023-04-29T01:57:02;93476.03;;;4.20;90.93
11053;BME280;55230;42.602;23.470;2023-04-29T01:59:30;93499.94;;;4.50;90.83
11053;BME280;55230;42.602;23.470;2023-04-29T02:01:56;93497.63;;;4.52;90.86
11053;BME280;55230;42.602;23.470;2023-04-29T02:04:23;93497.63;;;4.52;91.09
11053;BME280;55230;42.602;23.470;2023-04-29T02:06:50;93591.13;;;4.48;91.90
11053;BME280;55230;42.602;23.470;2023-04-29T02:09:17;92921.50;;;0.48;91.56
11053;BME280;55230;42.602;23.470;2023-04-29T02:11:45;93236.47;;;2.53;92.19
11053;BME280;55230;42.602;23.470;2023-04-29T02:14:13;93509.31;;;4.35;93.22
11053;BME280;55230;42.602;23.470;2023-04-29T02:16:39;93452.16;;;3.90;93.42
11053;BME280;55230;42.602;23.470;2023-04-29T02:19:09;93499.00;;;4.37;93.84
11053;BME280;55230;42.602;23.470;2023-04-29T02:21:36;93437.63;;;3.91;93.85
11053;BME280;55230;42.602;23.470;2023-04-29T02:24:04;93202.97;;;1.72;94.17
11053;BME280;55230;42.602;23.470;2023-04-29T02:26:31;93494.34;;;4.18;95.50
11053;BME280;55230;42.602;23.470;2023-04-29T02:28:59;93513.50;;;4.13;95.90
11053;BME280;55230;42.602;23.470;2023-04-29T02:31:28;93499.47;;;4.09;96.14
11053;BME280;55230;42.602;23.470;2023-04-29T02:33:54;93438.88;;;3.60;95.66
11053;BME280;55230;42.602;23.470;2023-04-29T02:36:21;93492.16;;;3.90;96.62
11053;BME280;55230;42.602;23.470;2023-04-29T02:38:48;93366.38;;;2.92;96.74
11053;BME280;55230;42.602;23.470;2023-04-29T02:41:15;93497.38;;;3.97;96.51
11053;BME280;55230;42.602;23.470;2023-04-29T02:43:43;93497.47;;;3.90;96.95
11053;BME280;55230;42.602;23.470;2023-04-29T02:46:11;93491.09;;;3.84;97.13
11053;BME280;55230;42.602;23.470;2023-04-29T02:48:38;93458.00;;;3.54;97.25
11053;BME280;55230;42.602;23.470;2023-04-29T02:51:05;93422.19;;;3.29;97.40
11053;BME280;55230;42.602;23.470;2023-04-29T02:53:32;93506.50;;;3.73;97.50
11053;BME280;55230;42.602;23.470;2023-04-29T02:55:59;93530.72;;;3.55;97.82
11053;BME280;55230;42.602;23.470;2023-04-29T02:58:25;93505.06;;;3.65;98.70
11053;BME280;55230;42.602;23.470;2023-04-29T03:00:52;93510.50;;;3.58;98.71
11053;BME280;55230;42.602;23.470;2023-04-29T03:03:20;93513.53;;;3.60;98.86
11053;BME280;55230;42.602;23.470;2023-04-29T03:05:47;93507.44;;;3.59;99.02
11053;BME280;55230;42.602;23.470;2023-04-29T03:08:14;93134.34;;;0.96;98.81
11053;BME280;55230;42.602;23.470;2023-04-29T03:10:41;93529.69;;;3.45;99.78
11053;BME280;55230;42.602;23.470;2023-04-29T03:13:08;93536.19;;;3.44;100.00
11053;BME280;55230;42.602;23.470;2023-04-29T03:15:35;93464.78;;;3.02;100.00
11053;BME280;55230;42.602;23.470;2023-04-29T03:18:03;93438.38;;;2.51;100.00
11053;BME280;55230;42.602;23.470;2023-04-29T03:20:31;93510.94;;;3.26;100.00
11053;BME280;55230;42.602;23.470;2023-04-29T03:22:58;93298.59;;;2.09;99.79
11053;BME280;55230;42.602;23.470;2023-04-29T03:25:25;93506.28;;;3.60;100.00
11053;BME280;55230;42.602;23.470;2023-04-29T03:27:53;93525.50;;;3.75;99.90
11053;BME280;55230;42.602;23.470;2023-04-29T03:30:19;93418.31;;;3.07;99.54
11053;BME280;55230;42.602;23.470;2023-04-29T03:32:46;93530.03;;;3.78;99.81
11053;BME280;55230;42.602;23.470;2023-04-29T03:35:13;93535.38;;;3.78;99.62
11053;BME280;55230;42.602;23.470;2023-04-29T03:37:41;93461.75;;;3.30;100.00
11053;BME280;55230;42.602;23.470;2023-04-29T03:40:10;93530.94;;;3.68;100.00
11053;BME280;55230;42.602;23.470;2023-04-29T03:42:37;93400.75;;;2.83;100.00
11053;BME280;55230;42.602;23.470;2023-04-29T03:45:05;92985.13;;;0.11;99.81
11053;BME280;55230;42.602;23.470;2023-04-29T03:47:31;93155.22;;;1.32;99.73
11053;BME280;55230;42.602;23.470;2023-04-29T03:49:58;93566.13;;;4.12;100.00
11053;BME280;55230;42.602;23.470;2023-04-29T03:52:25;93464.81;;;3.55;100.00
11053;BME280;55230;42.602;23.470;2023-04-29T03:54:54;93438.34;;;3.45;99.87
11053;BME280;55230;42.602;23.470;2023-04-29T03:57:20;93562.66;;;4.38;99.35
11053;BME280;55230;42.602;23.470;2023-04-29T03:59:47;93489.75;;;3.95;98.92
11053;BME280;55230;42.602;23.470;2023-04-29T04:02:14;93555.31;;;4.69;98.32
11053;BME280;55230;42.602;23.470;2023-04-29T04:04:41;93578.00;;;4.81;97.09
11053;BME280;55230;42.602;23.470;2023-04-29T04:07:08;93328.78;;;3.39;96.93
11053;BME280;55230;42.602;23.470;2023-04-29T04:09:35;93100.56;;;1.91;96.86
11053;BME280;55230;42.602;23.470;2023-04-29T04:12:05;93329.47;;;3.67;97.35
11053;BME280;55230;42.602;23.470;2023-04-29T04:14:32;93541.97;;;5.31;97.96
11053;BME280;55230;42.602;23.470;2023-04-29T04:16:58;93539.47;;;5.40;97.30
11053;BME280;55230;42.602;23.470;2023-04-29T04:19:25;93551.91;;;5.50;95.98
11053;BME280;55230;42.602;23.470;2023-04-29T04:21:53;93554.94;;;5.68;95.81
11053;BME280;55230;42.602;23.470;2023-04-29T04:24:20;93549.25;;;5.86;94.73
11053;BME280;55230;42.602;23.470;2023-04-29T04:26:46;93501.88;;;5.67;94.13
11053;BME280;55230;42.602;23.470;2023-04-29T04:29:15;93537.63;;;5.93;93.57
11053;BME280;55230;42.602;23.470;2023-04-29T04:31:41;93553.88;;;6.02;91.52
11053;BME280;55230;42.602;23.470;2023-04-29T04:34:08;93550.25;;;6.28;90.43
11053;BME280;55230;42.602;23.470;2023-04-29T04:36:35;93282.91;;;4.69;89.22
11053;BME280;55230;42.602;23.470;2023-04-29T04:39:02;93576.00;;;6.70;89.11
11053;BME280;55230;42.602;23.470;2023-04-29T04:41:29;93488.47;;;6.51;88.27
11053;BME280;55230;42.602;23.470;2023-04-29T04:43:56;93514.09;;;6.96;86.75
11053;BME280;55230;42.602;23.470;2023-04-29T04:46:24;93456.63;;;6.24;82.07
11053;BME280;55230;42.602;23.470;2023-04-29T04:48:51;93541.84;;;7.19;81.06
11053;BME280;55230;42.602;23.470;2023-04-29T04:51:18;93466.72;;;6.17;80.32
11053;BME280;55230;42.602;23.470;2023-04-29T04:53:45;93547.06;;;6.49;81.93
11053;BME280;55230;42.602;23.470;2023-04-29T04:56:11;93491.66;;;5.98;84.56
11053;BME280;55230;42.602;23.470;2023-04-29T04:58:38;93275.13;;;4.39;85.40
11053;BME280;55230;42.602;23.470;2023-04-29T05:01:05;93499.47;;;5.53;86.07
11053;BME280;55230;42.602;23.470;2023-04-29T05:03:33;93462.97;;;5.46;89.58
11053;BME280;55230;42.602;23.470;2023-04-29T05:06:00;93536.63;;;5.67;90.70
11053;BME280;55230;42.602;23.470;2023-04-29T05:08:27;93547.03;;;6.17;88.29
11053;BME280;55230;42.602;23.470;2023-04-29T05:10:54;93558.19;;;6.63;87.35
11053;BME280;55230;42.602;23.470;2023-04-29T05:13:22;93558.78;;;6.55;86.85
11053;BME280;55230;42.602;23.470;2023-04-29T05:15:49;93062.56;;;3.06;87.98
11053;BME280;55230;42.602;23.470;2023-04-29T05:18:17;93403.81;;;5.60;88.38
11053;BME280;55230;42.602;23.470;2023-04-29T05:20:45;93429.81;;;5.60;87.02
11053;BME280;55230;42.602;23.470;2023-04-29T05:23:12;93249.34;;;4.52;87.48
11053;BME280;55230;42.602;23.470;2023-04-29T05:25:38;93540.03;;;6.55;86.55
11053;BME280;55230;42.602;23.470;2023-04-29T05:28:06;93193.94;;;4.20;84.52
11053;BME280;55230;42.602;23.470;2023-04-29T05:30:33;93308.53;;;5.82;85.40
11053;BME280;55230;42.602;23.470;2023-04-29T05:32:59;93454.41;;;7.09;82.57
11053;BME280;55230;42.602;23.470;2023-04-29T05:35:26;93518.97;;;8.09;79.81
11053;BME280;55230;42.602;23.470;2023-04-29T05:37:54;93534.31;;;8.46;78.33
11053;BME280;55230;42.602;23.470;2023-04-29T05:40:21;93473.28;;;8.21;77.21
11053;BME280;55230;42.602;23.470;2023-04-29T05:42:48;93520.97;;;7.67;78.44
11053;BME280;55230;42.602;23.470;2023-04-29T05:45:15;93493.53;;;7.47;80.66
11053;BME280;55230;42.602;23.470;2023-04-29T05:47:42;93465.66;;;7.03;82.20
11053;BME280;55230;42.602;23.470;2023-04-29T05:50:09;93370.78;;;6.72;83.32
11053;BME280;55230;42.602;23.470;2023-04-29T05:52:37;93437.16;;;7.22;83.86
11053;BME280;55230;42.602;23.470;2023-04-29T05:55:05;93450.16;;;7.24;83.30
11053;BME280;55230;42.602;23.470;2023-04-29T05:57:32;93518.53;;;7.44;83.88
11053;BME280;55230;42.602;23.470;2023-04-29T05:59:59;93465.94;;;7.34;85.18
11053;BME280;55230;42.602;23.470;2023-04-29T06:02:26;93342.41;;;6.87;84.22
11053;BME280;55230;42.602;23.470;2023-04-29T06:04:52;93315.06;;;6.67;80.76
11053;BME280;55230;42.602;23.470;2023-04-29T06:07:19;93571.25;;;8.04;80.43
11053;BME280;55230;42.602;23.470;2023-04-29T06:09:47;93609.66;;;8.30;80.06
11053;BME280;55230;42.602;23.470;2023-04-29T06:12:15;93118.06;;;5.88;79.02
11053;BME280;55230;42.602;23.470;2023-04-29T06:14:42;93532.94;;;9.87;73.31
11053;BME280;55230;42.602;23.470;2023-04-29T06:17:08;93445.13;;;9.07;73.00
11053;BME280;55230;42.602;23.470;2023-04-29T06:19:35;93530.19;;;9.13;72.51
11053;BME280;55230;42.602;23.470;2023-04-29T06:22:02;93286.47;;;7.86;71.29
11053;BME280;55230;42.602;23.470;2023-04-29T06:24:29;93192.38;;;7.68;70.97
11053;BME280;55230;42.602;23.470;2023-04-29T06:26:56;93358.34;;;8.29;71.66
11053;BME280;55230;42.602;23.470;2023-04-29T06:29:24;93424.28;;;8.43;72.10
11053;BME280;55230;42.602;23.470;2023-04-29T06:31:51;93536.88;;;9.09;74.55
11053;BME280;55230;42.602;23.470;2023-04-29T06:34:18;93475.34;;;9.11;76.31
11053;BME280;55230;42.602;23.470;2023-04-29T06:36:45;93493.66;;;9.03;73.25
11053;BME280;55230;42.602;23.470;2023-04-29T06:39:11;93365.53;;;8.19;74.48
11053;BME280;55230;42.602;23.470;2023-04-29T06:41:38;93104.38;;;6.36;72.25
11053;BME280;55230;42.602;23.470;2023-04-29T06:44:05;93534.00;;;9.25;73.34
11053;BME280;55230;42.602;23.470;2023-04-29T06:46:33;93438.13;;;8.54;73.46
11053;BME280;55230;42.602;23.470;2023-04-29T06:49:00;93537.16;;;9.45;71.23
11053;BME280;55230;42.602;23.470;2023-04-29T06:51:27;93429.91;;;9.13;73.04
11053;BME280;55230;42.602;23.470;2023-04-29T06:53:53;93537.22;;;9.97;70.83
11053;BME280;55230;42.602;23.470;2023-04-29T06:56:20;93050.44;;;6.84;71.01
11053;BME280;55230;42.602;23.470;2023-04-29T06:58:48;93434.16;;;9.45;69.73
11053;BME280;55230;42.602;23.470;2023-04-29T07:01:14;93477.47;;;9.68;70.34
11053;BME280;55230;42.602;23.470;2023-04-29T07:03:43;93344.81;;;8.76;69.06
11053;BME280;55230;42.602;23.470;2023-04-29T07:06:09;93485.53;;;9.38;68.27
11053;BME280;55230;42.602;23.470;2023-04-29T07:08:36;93281.81;;;7.99;69.32
11053;BME280;55230;42.602;23.470;2023-04-29T07:11:03;93466.00;;;9.46;69.12
11053;BME280;55230;42.602;23.470;2023-04-29T07:13:30;93465.59;;;9.78;68.42
11053;BME280;55230;42.602;23.470;2023-04-29T07:15:57;93568.03;;;10.58;67.39
11053;BME280;55230;42.602;23.470;2023-04-29T07:18:24;93503.41;;;10.36;65.86
11053;BME280;55230;42.602;23.470;2023-04-29T07:20:52;93525.91;;;10.51;65.85
11053;BME280;55230;42.602;23.470;2023-04-29T07:23:20;93364.31;;;9.41;67.23
11053;BME280;55230;42.602;23.470;2023-04-29T07:25:46;93522.72;;;10.92;66.23
11053;BME280;55230;42.602;23.470;2023-04-29T07:28:13;93410.72;;;10.42;63.20
11053;BME280;55230;42.602;23.470;2023-04-29T07:30:40;93487.75;;;10.62;64.03
11053;BME280;55230;42.602;23.470;2023-04-29T07:33:07;93514.78;;;11.16;62.61
11053;BME280;55230;42.602;23.470;2023-04-29T07:35:34;93513.75;;;11.22;64.42
11053;BME280;55230;42.602;23.470;2023-04-29T07:38:02;93463.53;;;10.89;62.23
11053;BME280;55230;42.602;23.470;2023-04-29T07:40:29;93515.38;;;11.74;62.47
11053;BME280;55230;42.602;23.470;2023-04-29T07:42:56;93532.75;;;11.91;59.87
11053;BME280;55230;42.602;23.470;2023-04-29T07:45:22;93532.34;;;11.75;58.69
11053;BME280;55230;42.602;23.470;2023-04-29T07:47:49;93454.78;;;11.48;58.75
11053;BME280;55230;42.602;23.470;2023-04-29T07:50:16;93525.44;;;11.74;60.23
11053;BME280;55230;42.602;23.470;2023-04-29T07:52:43;93530.34;;;12.02;62.82
11053;BME280;55230;42.602;23.470;2023-04-29T07:55:11;93387.91;;;11.94;60.08
11053;BME280;55230;42.602;23.470;2023-04-29T07:57:38;93519.41;;;12.71;54.62
11053;BME280;55230;42.602;23.470;2023-04-29T08:00:05;93516.22;;;12.72;53.12
11053;BME280;55230;42.602;23.470;2023-04-29T08:02:33;93381.16;;;11.89;54.00
11053;BME280;55230;42.602;23.470;2023-04-29T08:04:59;93413.31;;;12.43;52.76
11053;BME280;55230;42.602;23.470;2023-04-29T08:07:26;93460.31;;;12.46;53.94
11053;BME280;55230;42.602;23.470;2023-04-29T08:09:53;93512.31;;;12.73;52.79
11053;BME280;55230;42.602;23.470;2023-04-29T08:12:21;93328.34;;;11.46;53.10
11053;BME280;55230;42.602;23.470;2023-04-29T08:14:48;93526.38;;;12.87;53.36
11053;BME280;55230;42.602;23.470;2023-04-29T08:17:15;93291.84;;;12.16;51.56
11053;BME280;55230;42.602;23.470;2023-04-29T08:19:41;93517.03;;;13.87;49.02
11053;BME280;55230;42.602;23.470;2023-04-29T08:22:08;93377.59;;;12.63;47.67
11053;BME280;55230;42.602;23.470;2023-04-29T08:24:36;93399.56;;;13.18;49.18
11053;BME280;55230;42.602;23.470;2023-04-29T08:27:03;93501.00;;;14.62;49.57
11053;BME280;55230;42.602;23.470;2023-04-29T08:29:31;93497.28;;;14.60;46.62
11053;BME280;55230;42.602;23.470;2023-04-29T08:31:58;93464.63;;;13.90;47.89
11053;BME280;55230;42.602;23.470;2023-04-29T08:34:25;93359.03;;;13.09;46.61
11053;BME280;55230;42.602;23.470;2023-04-29T08:36:52;93473.78;;;14.57;47.06
11053;BME280;55230;42.602;23.470;2023-04-29T08:39:19;93490.34;;;14.93;46.50
11053;BME280;55230;42.602;23.470;2023-04-29T08:41:46;93449.63;;;13.80;46.49
11053;BME280;55230;42.602;23.470;2023-04-29T08:44:15;93394.72;;;13.65;45.53
11053;BME280;55230;42.602;23.470;2023-04-29T08:46:45;93459.13;;;14.49;45.17
11053;BME280;55230;42.602;23.470;2023-04-29T08:49:12;93494.88;;;14.18;44.83
11053;BME280;55230;42.602;23.470;2023-04-29T08:51:39;93482.50;;;14.46;44.58
11053;BME280;55230;42.602;23.470;2023-04-29T08:54:06;93278.00;;;12.91;45.13
11053;BME280;55230;42.602;23.470;2023-04-29T08:56:33;93396.22;;;13.52;44.85
11053;BME280;55230;42.602;23.470;2023-04-29T08:59:01;93481.03;;;14.02;45.49
11053;BME280;55230;42.602;23.470;2023-04-29T09:01:29;93411.44;;;13.78;42.42
11053;BME280;55230;42.602;23.470;2023-04-29T09:04:06;93444.56;;;14.17;40.80
11053;BME280;55230;42.602;23.470;2023-04-29T09:06:34;93448.84;;;14.53;41.92
11053;BME280;55230;42.602;23.470;2023-04-29T09:09:02;93443.34;;;15.07;43.31
11053;BME280;55230;42.602;23.470;2023-04-29T09:11:29;93412.97;;;16.06;41.30
11053;BME280;55230;42.602;23.470;2023-04-29T09:13:58;93402.75;;;16.32;41.39
11053;BME280;55230;42.602;23.470;2023-04-29T09:16:26;93469.56;;;16.64;39.75
11053;BME280;55230;42.602;23.470;2023-04-29T09:18:52;93408.22;;;16.01;39.46
11053;BME280;55230;42.602;23.470;2023-04-29T09:21:23;93451.03;;;16.06;39.70
11053;BME280;55230;42.602;23.470;2023-04-29T09:23:52;93449.69;;;15.65;38.57
11053;BME280;55230;42.602;23.470;2023-04-29T09:26:20;93447.47;;;15.43;37.86
11053;BME280;55230;42.602;23.470;2023-04-29T09:28:47;93446.78;;;15.99;39.86
11053;BME280;55230;42.602;23.470;2023-04-29T09:31:14;93388.31;;;15.84;36.94
11053;BME280;55230;42.602;23.470;2023-04-29T09:33:51;93412.25;;;16.11;36.69
11053;BME280;55230;42.602;23.470;2023-04-29T09:36:39;93437.66;;;16.02;36.43
11053;BME280;55230;42.602;23.470;2023-04-29T09:39:06;93324.41;;;15.12;38.05
11053;BME280;55230;42.602;23.470;2023-04-29T09:41:38;93377.34;;;15.73;37.25
11053;BME280;55230;42.602;23.470;2023-04-29T09:44:06;93436.38;;;15.98;37.94
11053;BME280;55230;42.602;23.470;2023-04-29T09:46:33;93416.22;;;16.10;36.18
11053;BME280;55230;42.602;23.470;2023-04-29T09:49:01;93148.47;;;14.13;35.96
11053;BME280;55230;42.602;23.470;2023-04-29T09:51:28;93143.06;;;13.93;36.10
11053;BME280;55230;42.602;23.470;2023-04-29T09:53:59;93365.28;;;15.02;36.97
11053;BME280;55230;42.602;23.470;2023-04-29T09:56:26;93427.06;;;16.04;35.78
11053;BME280;55230;42.602;23.470;2023-04-29T09:58:55;93431.72;;;15.73;36.61
11053;BME280;55230;42.602;23.470;2023-04-29T10:01:24;93404.69;;;15.64;35.88
11053;BME280;55230;42.602;23.470;2023-04-29T10:03:53;93391.75;;;15.84;38.77
11053;BME280;55230;42.602;23.470;2023-04-29T10:06:22;93349.34;;;15.36;36.42
11053;BME280;55230;42.602;23.470;2023-04-29T10:08:50;93327.13;;;15.12;36.10
11053;BME280;55230;42.602;23.470;2023-04-29T10:11:19;93408.56;;;15.83;35.99
11053;BME280;55230;42.602;23.470;2023-04-29T10:13:47;93360.03;;;15.45;38.29
11053;BME280;55230;42.602;23.470;2023-04-29T10:16:25;93360.97;;;15.67;37.73
11053;BME280;55230;42.602;23.470;2023-04-29T10:18:54;93342.00;;;15.73;36.51
11053;BME280;55230;42.602;23.470;2023-04-29T10:21:26;93300.47;;;16.09;37.23
11053;BME280;55230;42.602;23.470;2023-04-29T10:23:56;93397.69;;;16.51;36.80
11053;BME280;55230;42.602;23.470;2023-04-29T10:26:26;93391.69;;;15.73;36.50
11053;BME280;55230;42.602;23.470;2023-04-29T10:28:53;93394.34;;;15.68;37.16
11053;BME280;55230;42.602;23.470;2023-04-29T10:31:21;93389.84;;;15.59;37.45
11053;BME280;55230;42.602;23.470;2023-04-29T10:33:48;93390.88;;;15.67;36.14
11053;BME280;55230;42.602;23.470;2023-04-29T10:36:16;93385.63;;;15.89;34.59
11053;BME280;55230;42.602;23.470;2023-04-29T10:38:46;93358.22;;;15.93;35.77
11053;BME280;55230;42.602;23.470;2023-04-29T10:41:19;93394.00;;;16.17;35.85
11053;BME280;55230;42.602;23.470;2023-04-29T10:43:48;93402.66;;;16.52;35.99
11053;BME280;55230;42.602;23.470;2023-04-29T10:46:20;93401.28;;;16.73;34.01
11053;BME280;55230;42.602;23.470;2023-04-29T10:48:49;93027.69;;;14.43;34.46
11053;BME280;55230;42.602;23.470;2023-04-29T10:51:30;93352.31;;;16.84;34.54
11053;BME280;55230;42.602;23.470;2023-04-29T10:53:59;93303.41;;;16.53;31.70
11053;BME280;55230;42.602;23.470;2023-04-29T10:56:40;93384.41;;;17.28;34.23
11053;BME280;55230;42.602;23.470;2023-04-29T10:59:12;93218.66;;;16.18;32.83
11053;BME280;55230;42.602;23.470;2023-04-29T11:01:45;93386.81;;;17.09;32.17
11053;BME280;55230;42.602;23.470;2023-04-29T11:04:14;93328.31;;;16.35;33.03
11053;BME280;55230;42.602;23.470;2023-04-29T11:06:45;93375.72;;;17.24;32.52
11053;BME280;55230;42.602;23.470;2023-04-29T11:09:19;93368.56;;;17.38;31.60
11053;BME280;55230;42.602;23.470;2023-04-29T11:11:55;93374.31;;;17.51;30.21
11053;BME280;55230;42.602;23.470;2023-04-29T11:14:25;93321.53;;;17.54;28.62
11053;BME280;55230;42.602;23.470;2023-04-29T11:16:53;93365.16;;;18.14;29.44
11053;BME280;55230;42.602;23.470;2023-04-29T11:19:23;93321.00;;;17.39;29.60
11053;BME280;55230;42.602;23.470;2023-04-29T11:22:03;93359.47;;;17.63;29.84
11053;BME280;55230;42.602;23.470;2023-04-29T11:24:33;93274.06;;;16.74;30.32
11053;BME280;55230;42.602;23.470;2023-04-29T11:27:01;93357.47;;;17.58;30.82
11053;BME280;55230;42.602;23.470;2023-04-29T11:29:31;93049.56;;;15.02;31.00
11053;BME280;55230;42.602;23.470;2023-04-29T11:31:58;93308.50;;;16.93;33.71
11053;BME280;55230;42.602;23.470;2023-04-29T11:34:25;93324.03;;;16.71;34.77
11053;BME280;55230;42.602;23.470;2023-04-29T11:36:52;93295.16;;;17.01;34.19
11053;BME280;55230;42.602;23.470;2023-04-29T11:39:19;93313.28;;;17.31;33.20
11053;BME280;55230;42.602;23.470;2023-04-29T11:41:48;93006.59;;;14.58;33.82
11053;BME280;55230;42.602;23.470;2023-04-29T11:44:20;93361.34;;;17.23;34.40
11053;BME280;55230;42.602;23.470;2023-04-29T11:46:49;93286.78;;;17.10;34.61
11053;BME280;55230;42.602;23.470;2023-04-29T11:49:16;93174.59;;;16.08;33.86
11053;BME280;55230;42.602;23.470;2023-04-29T11:51:42;93175.25;;;15.87;35.32
11053;BME280;55230;42.602;23.470;2023-04-29T11:54:10;93351.75;;;17.50;34.06
11053;BME280;55230;42.602;23.470;2023-04-29T11:56:37;93389.66;;;17.43;34.59
11053;BME280;55230;42.602;23.470;2023-04-29T11:59:04;93316.50;;;17.24;35.38
11053;BME280;55230;42.602;23.470;2023-04-29T12:01:32;93351.41;;;17.09;35.61
11053;BME280;55230;42.602;23.470;2023-04-29T12:04:00;93363.97;;;16.90;34.93
11053;BME280;55230;42.602;23.470;2023-04-29T12:06:28;93264.75;;;15.90;34.66
11053;BME280;55230;42.602;23.470;2023-04-29T12:08:58;93349.72;;;16.59;36.01
11053;BME280;55230;42.602;23.470;2023-04-29T12:11:25;93238.16;;;15.69;36.69
11053;BME280;55230;42.602;23.470;2023-04-29T12:13:52;93264.81;;;16.01;36.55
11053;BME280;55230;42.602;23.470;2023-04-29T12:16:19;93352.41;;;16.53;37.55
11053;BME280;55230;42.602;23.470;2023-04-29T12:18:48;93343.09;;;16.71;37.58
11053;BME280;55230;42.602;23.470;2023-04-29T12:21:17;93301.97;;;16.10;37.35
11053;BME280;55230;42.602;23.470;2023-04-29T12:23:44;93275.00;;;15.70;38.61
11053;BME280;55230;42.602;23.470;2023-04-29T12:26:11;93348.06;;;16.30;37.79
11053;BME280;55230;42.602;23.470;2023-04-29T12:28:39;93270.69;;;15.89;38.41
11053;BME280;55230;42.602;23.470;2023-04-29T12:31:08;92862.31;;;12.99;39.04
11053;BME280;55230;42.602;23.470;2023-04-29T12:33:35;93339.19;;;16.35;39.05
11053;BME280;55230;42.602;23.470;2023-04-29T12:36:02;93137.69;;;15.01;38.68
11053;BME280;55230;42.602;23.470;2023-04-29T12:38:31;93301.81;;;15.88;38.84
11053;BME280;55230;42.602;23.470;2023-04-29T12:40:59;93311.13;;;15.76;38.58
11053;BME280;55230;42.602;23.470;2023-04-29T12:43:26;93304.63;;;15.99;39.70
11053;BME280;55230;42.602;23.470;2023-04-29T12:45:54;93334.88;;;15.81;38.95
11053;BME280;55230;42.602;23.470;2023-04-29T12:48:28;93288.91;;;16.19;40.84
11053;BME280;55230;42.602;23.470;2023-04-29T12:50:55;93188.41;;;15.52;40.23
11053;BME280;55230;42.602;23.470;2023-04-29T12:53:22;93297.91;;;16.42;40.73
11053;BME280;55230;42.602;23.470;2023-04-29T12:55:51;93224.38;;;15.78;40.62
11053;BME280;55230;42.602;23.470;2023-04-29T12:58:18;93197.63;;;15.60;42.12